createdAt,value
2022-11-27T00:01:51.987Z,7.16
2022-11-27T00:04:21.950Z,7.41
2022-11-27T00:06:55.551Z,7.53
2022-11-27T00:09:25.596Z,7.51
2022-11-27T00:11:55.472Z,7.41
2022-11-27T00:14:25.344Z,7.20
2022-11-27T00:16:55.297Z,7.16
2022-11-27T00:19:25.227Z,7.17
2022-11-27T00:21:57.999Z,7.22
2022-11-27T00:24:27.940Z,7.11
2022-11-27T00:26:57.833Z,7.04
2022-11-27T00:29:29.228Z,7.31
2022-11-27T00:31:59.544Z,6.95
2022-11-27T00:34:29.437Z,6.89
2022-11-27T00:37:02.007Z,6.80
2022-11-27T00:39:31.934Z,6.65
2022-11-27T00:42:01.866Z,6.98
2022-11-27T00:44:31.891Z,7.29
2022-11-27T00:47:02.276Z,6.98
2022-11-27T00:49:32.306Z,7.42
2022-11-27T00:52:04.752Z,7.48
2022-11-27T00:54:34.573Z,7.37
2022-11-27T00:57:04.433Z,7.18
2022-11-27T00:59:34.652Z,7.39
2022-11-27T01:02:04.616Z,6.96
2022-11-27T01:04:34.507Z,7.34
2022-11-27T01:07:07.026Z,7.17
2022-11-27T01:09:36.935Z,7.36
2022-11-27T01:12:07.665Z,6.91
2022-11-27T01:14:38.108Z,7.23
2022-11-27T01:17:08.218Z,7.26
2022-11-27T01:19:38.070Z,7.26
2022-11-27T01:22:10.642Z,6.68
2022-11-27T01:24:40.700Z,7.18
2022-11-27T01:27:10.765Z,6.85
2022-11-27T01:29:40.832Z,6.65
2022-11-27T01:32:10.691Z,6.87
2022-11-27T01:34:40.623Z,6.75
2022-11-27T01:37:13.192Z,6.60
2022-11-27T01:39:43.237Z,6.55
2022-11-27T01:42:13.772Z,6.58
2022-11-27T01:44:58.332Z,6.25
2022-11-27T01:47:47.672Z,6.24
2022-11-27T01:50:24.134Z,6.44
2022-11-27T01:53:02.830Z,6.50
2022-11-27T01:55:36.618Z,6.55
2022-11-27T01:58:10.837Z,6.41
2022-11-27T02:00:41.195Z,6.43
2022-11-27T02:03:11.228Z,6.51
2022-11-27T02:05:41.285Z,6.65
2022-11-27T02:08:17.197Z,6.63
2022-11-27T02:10:52.218Z,6.87
2022-11-27T02:13:28.705Z,6.51
2022-11-27T02:16:08.737Z,6.78
2022-11-27T02:18:46.307Z,6.69
2022-11-27T02:21:22.850Z,6.68
2022-11-27T02:24:22.477Z,6.78
2022-11-27T02:27:20.862Z,6.69
2022-11-27T02:29:57.549Z,6.31
2022-11-27T02:32:32.419Z,6.60
2022-11-27T02:35:07.406Z,6.53
2022-11-27T02:37:42.490Z,6.26
2022-11-27T02:40:16.678Z,5.91
2022-11-27T02:42:50.916Z,6.22
2022-11-27T02:45:27.881Z,6.31
2022-11-27T02:47:59.818Z,6.20
2022-11-27T02:50:33.623Z,6.48
2022-11-27T02:53:08.091Z,6.30
2022-11-27T02:55:41.075Z,6.22
2022-11-27T02:58:15.660Z,6.09
2022-11-27T03:00:50.148Z,6.15
2022-11-27T03:03:24.324Z,6.20
2022-11-27T03:05:58.355Z,6.04
2022-11-27T03:08:33.832Z,6.14
2022-11-27T03:11:06.943Z,6.33
2022-11-27T03:13:40.087Z,6.47
2022-11-27T03:16:18.507Z,6.62
2022-11-27T03:18:59.474Z,6.24
2022-11-27T03:21:35.192Z,6.58
2022-11-27T03:24:05.455Z,6.51
2022-11-27T03:26:35.499Z,6.54
2022-11-27T03:29:07.943Z,6.53
2022-11-27T03:31:40.870Z,6.52
2022-11-27T03:34:11.359Z,6.50
2022-11-27T03:36:41.339Z,6.38
2022-11-27T03:39:11.937Z,6.64
2022-11-27T03:41:49.794Z,6.81
2022-11-27T03:44:30.876Z,6.81
2022-11-27T03:47:13.138Z,6.77
2022-11-27T03:49:57.009Z,6.50
2022-11-27T03:52:33.397Z,6.27
2022-11-27T03:55:11.166Z,6.20
2022-11-27T03:57:46.325Z,6.29
2022-11-27T04:00:17.799Z,5.87
2022-11-27T04:02:53.128Z,6.30
2022-11-27T04:05:23.572Z,5.80
2022-11-27T04:07:53.524Z,5.99
2022-11-27T04:10:24.247Z,6.40
2022-11-27T04:12:54.123Z,6.12
2022-11-27T04:15:24.039Z,6.44
2022-11-27T04:17:56.520Z,6.50
2022-11-27T04:20:26.587Z,6.50
2022-11-27T04:22:56.453Z,5.99
2022-11-27T04:25:26.613Z,5.84
2022-11-27T04:27:56.485Z,6.44
2022-11-27T04:30:26.526Z,6.31
2022-11-27T04:32:58.979Z,6.22
2022-11-27T04:35:28.808Z,6.30
2022-11-27T04:37:59.670Z,6.27
2022-11-27T04:40:29.560Z,6.30
2022-11-27T04:42:59.413Z,6.13
2022-11-27T04:45:29.339Z,6.43
2022-11-27T04:48:01.775Z,6.45
2022-11-27T04:50:32.776Z,6.26
2022-11-27T04:53:02.811Z,6.25
2022-11-27T04:55:32.623Z,6.19
2022-11-27T04:58:02.477Z,6.18
2022-11-27T05:00:32.386Z,6.11
2022-11-27T05:03:04.968Z,6.25
2022-11-27T05:05:34.953Z,5.86
2022-11-27T05:08:04.759Z,5.70
2022-11-27T05:10:34.599Z,5.92
2022-11-27T05:13:04.447Z,5.46
2022-11-27T05:15:34.249Z,5.47
2022-11-27T05:18:07.033Z,5.78
2022-11-27T05:20:36.897Z,5.65
2022-11-27T05:23:06.714Z,5.30
2022-11-27T05:25:36.527Z,5.62
2022-11-27T05:28:06.632Z,5.53
2022-11-27T05:30:36.490Z,5.39
2022-11-27T05:33:08.963Z,5.81
2022-11-27T05:35:38.794Z,5.67
2022-11-27T05:38:08.986Z,5.29
2022-11-27T05:40:38.867Z,5.65
2022-11-27T05:43:08.848Z,5.48
2022-11-27T05:45:40.240Z,5.88
2022-11-27T05:48:12.720Z,6.12
2022-11-27T05:50:42.680Z,6.15
2022-11-27T05:53:12.517Z,5.83
2022-11-27T05:55:42.386Z,5.75
2022-11-27T05:58:12.235Z,6.05
2022-11-27T06:00:42.055Z,6.32
2022-11-27T06:03:14.501Z,6.01
2022-11-27T06:05:45.507Z,6.19
2022-11-27T06:08:15.344Z,5.84
2022-11-27T06:10:45.239Z,6.19
2022-11-27T06:13:15.172Z,6.26
2022-11-27T06:15:45.576Z,6.42
2022-11-27T06:18:18.023Z,6.34
2022-11-27T06:20:51.712Z,6.29
2022-11-27T06:23:22.851Z,6.01
2022-11-27T06:25:52.710Z,6.28
2022-11-27T06:28:22.525Z,6.11
2022-11-27T06:30:52.569Z,6.20
2022-11-27T06:33:25.025Z,6.19
2022-11-27T06:35:57.791Z,6.09
2022-11-27T06:38:27.632Z,5.88
2022-11-27T06:40:57.488Z,5.79
2022-11-27T06:43:27.377Z,5.69
2022-11-27T06:46:01.075Z,6.07
2022-11-27T06:48:33.879Z,5.92
2022-11-27T06:51:04.313Z,5.87
2022-11-27T06:53:35.883Z,5.72
2022-11-27T06:56:06.145Z,5.84
2022-11-27T06:58:36.083Z,5.77
2022-11-27T07:01:07.609Z,5.79
2022-11-27T07:03:40.135Z,5.56
2022-11-27T07:06:11.999Z,5.45
2022-11-27T07:08:42.330Z,5.66
2022-11-27T07:11:16.638Z,5.47
2022-11-27T07:13:46.775Z,5.72
2022-11-27T07:16:17.767Z,5.70
2022-11-27T07:18:52.095Z,5.84
2022-11-27T07:21:23.441Z,5.92
2022-11-27T07:23:56.415Z,5.40
2022-11-27T07:26:28.386Z,6.22
2022-11-27T07:28:59.006Z,6.10
2022-11-27T07:31:31.067Z,6.42
2022-11-27T07:34:06.943Z,6.36
2022-11-27T07:36:40.770Z,6.03
2022-11-27T07:39:10.709Z,6.16
2022-11-27T07:41:40.633Z,6.40
2022-11-27T07:44:10.631Z,6.13
2022-11-27T07:46:40.550Z,6.49
2022-11-27T07:49:13.105Z,6.34
2022-11-27T07:51:42.974Z,6.45
2022-11-27T07:54:13.089Z,6.32
2022-11-27T07:56:42.963Z,6.44
2022-11-27T07:59:12.872Z,6.35
2022-11-27T08:01:44.888Z,6.46
2022-11-27T08:04:18.502Z,6.15
2022-11-27T08:06:48.437Z,6.48
2022-11-27T08:09:18.422Z,6.40
2022-11-27T08:11:49.311Z,6.20
2022-11-27T08:14:19.375Z,6.59
2022-11-27T08:16:50.333Z,6.49
2022-11-27T08:19:24.305Z,6.69
2022-11-27T08:21:54.236Z,6.14
2022-11-27T08:24:24.123Z,6.18
2022-11-27T08:26:55.049Z,6.37
2022-11-27T08:29:31.194Z,6.25
2022-11-27T08:32:04.762Z,6.52
2022-11-27T08:34:37.301Z,6.67
2022-11-27T08:37:08.534Z,6.77
2022-11-27T08:39:38.693Z,6.46
2022-11-27T08:42:08.687Z,6.61
2022-11-27T08:44:39.821Z,6.49
2022-11-27T08:47:10.888Z,6.50
2022-11-27T08:49:46.230Z,6.70
2022-11-27T08:52:16.434Z,6.69
2022-11-27T08:54:47.257Z,6.85
2022-11-27T08:57:19.800Z,6.86
2022-11-27T08:59:49.726Z,6.89
2022-11-27T09:02:20.766Z,6.90
2022-11-27T09:04:54.535Z,6.60
2022-11-27T09:07:25.588Z,6.59
2022-11-27T09:09:55.692Z,6.76
2022-11-27T09:12:27.631Z,6.79
2022-11-27T09:14:57.571Z,6.91
2022-11-27T09:17:28.650Z,7.03
2022-11-27T09:20:02.229Z,6.94
2022-11-27T09:22:33.272Z,6.73
2022-11-27T09:25:04.554Z,7.63
2022-11-27T09:27:34.536Z,7.58
2022-11-27T09:30:04.558Z,5.97
2022-11-27T09:32:35.601Z,7.32
2022-11-27T09:35:09.832Z,7.57
2022-11-27T09:37:41.739Z,7.55
2022-11-27T09:40:17.804Z,7.59
2022-11-27T09:42:56.504Z,7.55
2022-11-27T09:45:28.212Z,7.29
2022-11-27T09:48:03.611Z,7.53
2022-11-27T09:50:39.532Z,7.19
2022-11-27T09:53:21.839Z,7.26
2022-11-27T09:55:56.181Z,7.35
2022-11-27T09:58:38.217Z,7.20
2022-11-27T10:01:14.931Z,7.32
2022-11-27T10:03:48.072Z,7.35
2022-11-27T10:06:29.905Z,7.89
2022-11-27T10:09:15.351Z,7.87
2022-11-27T10:11:53.112Z,7.86
2022-11-27T10:14:37.680Z,7.90
2022-11-27T10:17:15.692Z,7.82
2022-11-27T10:19:54.795Z,7.49
2022-11-27T10:22:35.892Z,7.93
2022-11-27T10:25:17.323Z,8.10
2022-11-27T10:28:00.887Z,8.27
2022-11-27T10:30:32.574Z,7.96
2022-11-27T10:33:05.449Z,8.22
2022-11-27T10:35:36.659Z,7.93
2022-11-27T10:38:16.484Z,7.82
2022-11-27T10:40:56.308Z,8.26
2022-11-27T10:43:28.666Z,8.24
2022-11-27T10:46:02.388Z,8.53
2022-11-27T10:48:35.539Z,8.47
2022-11-27T10:51:05.562Z,8.27
2022-11-27T10:53:43.085Z,8.71
2022-11-27T10:56:39.875Z,8.84
2022-11-27T10:59:14.534Z,8.69
2022-11-27T11:01:46.792Z,8.86
2022-11-27T11:04:36.876Z,8.79
2022-11-27T11:07:26.120Z,9.18
2022-11-27T11:09:59.819Z,8.86
2022-11-27T11:12:29.841Z,8.85
2022-11-27T11:15:05.083Z,9.27
2022-11-27T11:17:37.960Z,9.23
2022-11-27T11:20:18.366Z,9.43
2022-11-27T11:22:49.937Z,9.43
2022-11-27T11:25:24.953Z,9.03
2022-11-27T11:27:56.211Z,9.36
2022-11-27T11:30:34.767Z,9.29
2022-11-27T11:33:07.266Z,9.01
2022-11-27T11:35:39.156Z,9.05
2022-11-27T11:38:17.649Z,9.38
2022-11-27T11:41:02.461Z,9.30
2022-11-27T11:43:35.749Z,9.42
2022-11-27T11:46:22.945Z,9.30
2022-11-27T11:48:57.947Z,9.28
2022-11-27T11:52:05.384Z,9.28
2022-11-27T11:54:52.456Z,9.35
2022-11-27T11:57:51.376Z,9.48
2022-11-27T12:00:30.141Z,9.58
2022-11-27T12:03:21.623Z,9.46
2022-11-27T12:06:09.793Z,9.38
2022-11-27T12:09:02.770Z,9.60
2022-11-27T12:11:40.605Z,9.59
2022-11-27T12:14:27.437Z,9.33
2022-11-27T12:17:07.323Z,9.66
2022-11-27T12:20:05.995Z,9.78
2022-11-27T12:22:51.519Z,9.41
2022-11-27T12:25:32.803Z,9.75
2022-11-27T12:28:26.971Z,9.75
2022-11-27T12:31:08.624Z,9.79
2022-11-27T12:33:53.656Z,9.83
2022-11-27T12:36:33.969Z,10.10
2022-11-27T12:39:14.085Z,10.29
2022-11-27T12:42:03.428Z,10.20
2022-11-27T12:44:45.089Z,10.27
2022-11-27T12:47:21.984Z,10.01
2022-11-27T12:49:56.353Z,10.33
2022-11-27T12:52:28.886Z,9.92
2022-11-27T12:55:04.802Z,10.36
2022-11-27T12:57:42.687Z,10.31
2022-11-27T13:00:19.099Z,10.36
2022-11-27T13:03:02.804Z,10.38
2022-11-27T13:05:37.636Z,10.27
2022-11-27T13:08:13.572Z,10.12
2022-11-27T13:10:48.897Z,10.51
2022-11-27T13:13:25.001Z,10.01
2022-11-27T13:15:59.190Z,10.36
2022-11-27T13:18:39.502Z,9.91
2022-11-27T13:21:15.114Z,10.07
2022-11-27T13:23:46.138Z,10.01
2022-11-27T13:26:24.848Z,10.01
2022-11-27T13:28:59.918Z,10.29
2022-11-27T13:31:35.474Z,10.25
2022-11-27T13:34:12.916Z,10.08
2022-11-27T13:36:47.009Z,10.44
2022-11-27T13:39:27.378Z,10.39
2022-11-27T13:42:09.093Z,10.32
2022-11-27T13:44:44.806Z,9.72
2022-11-27T13:47:19.930Z,10.32
2022-11-27T13:50:01.759Z,10.31
2022-11-27T13:52:32.270Z,10.24
2022-11-27T13:55:05.575Z,9.91
2022-11-27T13:57:38.530Z,9.75
2022-11-27T14:00:13.318Z,10.04
2022-11-27T14:02:47.641Z,9.87
2022-11-27T14:05:23.054Z,10.22
2022-11-27T14:07:55.498Z,10.10
2022-11-27T14:10:29.660Z,10.14
2022-11-27T14:13:02.470Z,9.50
2022-11-27T14:15:34.297Z,9.65
2022-11-27T14:18:10.289Z,10.09
2022-11-27T14:20:50.772Z,9.99
2022-11-27T14:23:30.069Z,10.19
2022-11-27T14:26:14.687Z,10.13
2022-11-27T14:28:46.715Z,10.13
2022-11-27T14:31:31.668Z,9.98
2022-11-27T14:34:24.324Z,9.82
2022-11-27T14:36:57.642Z,10.05
2022-11-27T14:39:30.686Z,10.11
2022-11-27T14:42:02.385Z,10.07
2022-11-27T14:44:33.014Z,9.72
2022-11-27T14:47:06.781Z,9.83
2022-11-27T14:49:38.641Z,10.03
2022-11-27T14:52:18.113Z,9.67
2022-11-27T14:54:48.289Z,10.17
2022-11-27T14:57:28.905Z,9.91
2022-11-27T15:00:18.411Z,9.95
2022-11-27T15:02:52.047Z,10.25
2022-11-27T15:05:25.553Z,10.32
2022-11-27T15:08:00.984Z,10.00
2022-11-27T15:10:35.210Z,10.23
2022-11-27T15:13:06.153Z,9.94
2022-11-27T15:15:41.666Z,10.14
2022-11-27T15:18:17.413Z,9.73
2022-11-27T15:20:48.357Z,10.19
2022-11-27T15:23:24.489Z,9.64
2022-11-27T15:26:12.548Z,9.97
2022-11-27T15:28:45.359Z,9.90
2022-11-27T15:31:29.767Z,9.82
2022-11-27T15:34:02.609Z,9.84
2022-11-27T15:36:43.390Z,9.66
2022-11-27T15:39:23.703Z,9.60
2022-11-27T15:41:58.486Z,9.56
2022-11-27T15:44:33.186Z,9.85
2022-11-27T15:47:07.172Z,9.89
2022-11-27T15:49:37.163Z,9.76
2022-11-27T15:52:08.112Z,9.99
2022-11-27T15:54:41.990Z,9.70
2022-11-27T15:57:12.187Z,10.13
2022-11-27T15:59:42.323Z,9.85
2022-11-27T16:02:17.859Z,9.87
2022-11-27T16:04:50.182Z,10.02
2022-11-27T16:07:21.237Z,9.75
2022-11-27T16:09:54.746Z,9.61
2022-11-27T16:12:25.011Z,9.51
2022-11-27T16:14:56.082Z,9.80
2022-11-27T16:17:27.093Z,9.71
2022-11-27T16:19:58.035Z,9.92
2022-11-27T16:22:29.061Z,10.09
2022-11-27T16:25:02.644Z,10.12
2022-11-27T16:27:33.553Z,10.15
2022-11-27T16:30:03.619Z,10.12
2022-11-27T16:32:35.446Z,9.71
2022-11-27T16:35:08.620Z,9.64
2022-11-27T16:37:39.928Z,9.64
2022-11-27T16:40:15.652Z,9.68
2022-11-27T16:42:47.998Z,9.70
2022-11-27T16:45:18.129Z,9.85
2022-11-27T16:47:49.115Z,9.61
2022-11-27T16:50:22.391Z,9.94
2022-11-27T16:52:54.524Z,9.50
2022-11-27T16:55:30.702Z,9.73
2022-11-27T16:58:02.895Z,10.00
2022-11-27T17:00:33.937Z,9.70
2022-11-27T17:03:04.834Z,9.86
2022-11-27T17:05:39.882Z,9.98
2022-11-27T17:08:09.888Z,9.57
2022-11-27T17:10:44.184Z,9.99
2022-11-27T17:13:15.093Z,10.01
2022-11-27T17:15:45.301Z,9.66
2022-11-27T17:18:17.003Z,9.64
2022-11-27T17:20:46.979Z,9.67
2022-11-27T17:23:18.027Z,9.92
2022-11-27T17:25:51.576Z,9.58
2022-11-27T17:28:21.746Z,9.87
2022-11-27T17:30:52.934Z,9.48
2022-11-27T17:33:22.860Z,9.29
2022-11-27T17:35:52.731Z,9.40
2022-11-27T17:38:23.768Z,9.71
2022-11-27T17:40:56.532Z,9.41
2022-11-27T17:43:28.103Z,9.40
2022-11-27T17:45:58.169Z,9.25
2022-11-27T17:48:29.435Z,9.57
2022-11-27T17:51:02.674Z,9.53
2022-11-27T17:53:32.744Z,9.14
2022-11-27T17:56:09.313Z,9.40
2022-11-27T17:58:39.810Z,9.50
2022-11-27T18:01:18.683Z,9.59
2022-11-27T18:03:50.259Z,9.26
2022-11-27T18:06:22.858Z,9.47
2022-11-27T18:08:55.357Z,9.52
2022-11-27T18:11:30.053Z,9.75
2022-11-27T18:14:02.660Z,9.94
2022-11-27T18:16:35.222Z,9.97
2022-11-27T18:19:08.014Z,9.98
2022-11-27T18:21:39.082Z,9.86
2022-11-27T18:24:25.920Z,9.90
2022-11-27T18:27:09.216Z,9.68
2022-11-27T18:29:40.814Z,9.84
2022-11-27T18:32:13.767Z,9.71
2022-11-27T18:34:45.197Z,9.74
2022-11-27T18:37:15.895Z,9.64
2022-11-27T18:39:47.747Z,9.17
2022-11-27T18:42:21.401Z,9.56
2022-11-27T18:44:53.492Z,9.62
2022-11-27T18:47:23.713Z,9.27
2022-11-27T18:49:55.728Z,9.49
2022-11-27T18:52:26.728Z,9.26
2022-11-27T18:54:56.823Z,9.39
2022-11-27T18:57:29.500Z,9.91
2022-11-27T18:59:59.529Z,9.54
2022-11-27T19:02:29.607Z,9.75
2022-11-27T19:04:59.645Z,9.61
2022-11-27T19:07:30.698Z,9.49
2022-11-27T19:10:00.905Z,9.50
2022-11-27T19:12:33.580Z,9.47
2022-11-27T19:15:03.484Z,9.18
2022-11-27T19:17:34.931Z,9.28
2022-11-27T19:20:06.831Z,9.15
2022-11-27T19:22:36.932Z,9.70
2022-11-27T19:25:09.019Z,9.53
2022-11-27T19:27:41.785Z,9.34
2022-11-27T19:30:12.797Z,9.28
2022-11-27T19:32:43.768Z,9.30
2022-11-27T19:35:14.821Z,9.35
2022-11-27T19:37:45.013Z,9.44
2022-11-27T19:40:17.142Z,9.45
2022-11-27T19:42:55.567Z,9.48
2022-11-27T19:45:29.835Z,9.54
2022-11-27T19:48:01.278Z,9.46
2022-11-27T19:50:32.590Z,9.40
2022-11-27T19:53:05.002Z,9.55
2022-11-27T19:55:37.305Z,9.40
2022-11-27T19:58:11.244Z,9.15
2022-11-27T20:00:42.588Z,9.43
2022-11-27T20:03:14.758Z,9.44
2022-11-27T20:05:44.705Z,9.39
2022-11-27T20:08:15.174Z,8.94
2022-11-27T20:10:52.039Z,9.38
2022-11-27T20:13:24.616Z,9.03
2022-11-27T20:15:55.611Z,9.29
2022-11-27T20:18:27.965Z,9.18
2022-11-27T20:21:07.691Z,9.41
2022-11-27T20:23:39.067Z,9.42
2022-11-27T20:26:11.512Z,9.43
2022-11-27T20:28:45.571Z,9.32
2022-11-27T20:31:23.129Z,9.39
2022-11-27T20:33:54.371Z,9.53
2022-11-27T20:36:25.818Z,9.49
2022-11-27T20:38:57.886Z,9.55
2022-11-27T20:41:30.165Z,9.43
2022-11-27T20:44:04.880Z,9.71
2022-11-27T20:46:36.261Z,9.17
2022-11-27T20:49:07.334Z,9.65
2022-11-27T20:51:37.921Z,9.28
2022-11-27T20:54:13.123Z,9.62
2022-11-27T20:56:45.655Z,9.71
2022-11-27T20:59:19.235Z,9.84
2022-11-27T21:01:49.518Z,9.43
2022-11-27T21:04:23.822Z,9.78
2022-11-27T21:06:56.668Z,9.31
2022-11-27T21:09:27.971Z,9.65
2022-11-27T21:12:00.187Z,9.44
2022-11-27T21:14:33.641Z,9.73
2022-11-27T21:17:05.230Z,9.66
2022-11-27T21:19:37.155Z,9.58
2022-11-27T21:22:07.562Z,9.11
2022-11-27T21:24:37.491Z,9.22
2022-11-27T21:27:08.155Z,9.02
2022-11-27T21:29:42.010Z,9.08
2022-11-27T21:32:14.492Z,9.31
2022-11-27T21:34:44.756Z,8.85
2022-11-27T21:37:16.015Z,9.00
2022-11-27T21:39:47.038Z,9.05
2022-11-27T21:42:18.573Z,8.56
2022-11-27T21:44:51.713Z,8.99
2022-11-27T21:47:22.221Z,8.98
2022-11-27T21:49:53.042Z,8.89
2022-11-27T21:52:24.133Z,8.33
2022-11-27T21:54:55.957Z,8.50
2022-11-27T21:57:25.859Z,8.84
2022-11-27T21:59:59.451Z,8.82
2022-11-27T22:02:29.361Z,8.66
2022-11-27T22:05:00.298Z,8.89
2022-11-27T22:07:30.334Z,8.96
2022-11-27T22:10:01.246Z,8.87
2022-11-27T22:12:32.240Z,8.87
2022-11-27T22:15:05.171Z,8.92
2022-11-27T22:17:36.170Z,9.72
2022-11-27T22:20:08.402Z,8.72
2022-11-27T22:22:39.555Z,8.88
2022-11-27T22:25:10.061Z,8.73
2022-11-27T22:27:40.571Z,9.04
2022-11-27T22:30:14.122Z,8.78
2022-11-27T22:32:44.112Z,8.99
2022-11-27T22:35:14.237Z,9.10
2022-11-27T22:37:45.470Z,9.15
2022-11-27T22:40:16.979Z,9.10
2022-11-27T22:42:48.231Z,8.99
2022-11-27T22:45:21.109Z,8.94
2022-11-27T22:47:52.012Z,8.60
2022-11-27T22:50:22.902Z,8.95
2022-11-27T22:52:58.075Z,8.89
2022-11-27T22:55:28.255Z,8.65
2022-11-27T22:57:58.234Z,8.59
2022-11-27T23:00:30.795Z,9.01
2022-11-27T23:03:01.123Z,8.80
2022-11-27T23:05:31.162Z,8.93
2022-11-27T23:08:01.643Z,9.11
2022-11-27T23:10:32.056Z,9.05
2022-11-27T23:13:02.027Z,8.96
2022-11-27T23:15:35.468Z,9.39
2022-11-27T23:18:06.800Z,8.95
2022-11-27T23:20:37.861Z,8.80
2022-11-27T23:23:07.856Z,8.74
2022-11-27T23:25:37.995Z,8.96
2022-11-27T23:28:09.370Z,8.47
2022-11-27T23:30:43.063Z,8.78
2022-11-27T23:33:13.018Z,8.51
2022-11-27T23:35:43.978Z,8.29
2022-11-27T23:38:13.872Z,8.34
2022-11-27T23:40:43.823Z,8.05
2022-11-27T23:43:14.728Z,8.35
2022-11-27T23:45:47.389Z,7.80
2022-11-27T23:48:18.329Z,8.47
2022-11-27T23:50:49.274Z,8.50
2022-11-27T23:53:20.231Z,8.37
2022-11-27T23:55:50.232Z,8.43
2022-11-27T23:58:21.215Z,8.68
